createdAt,value
2022-12-15T00:01:24.329Z,50.15
2022-12-15T00:03:14.895Z,49.53
2022-12-15T00:05:06.145Z,48.97
2022-12-15T00:06:57.017Z,52.42
2022-12-15T00:08:47.648Z,49.03
2022-12-15T00:10:38.911Z,48.67
2022-12-15T00:12:29.621Z,50.35
2022-12-15T00:14:21.331Z,50.30
2022-12-15T00:16:12.015Z,48.25
2022-12-15T00:18:02.405Z,55.30
2022-12-15T00:19:53.052Z,57.70
2022-12-15T00:21:43.455Z,51.08
2022-12-15T00:23:34.168Z,47.85
2022-12-15T00:25:25.887Z,47.70
2022-12-15T00:27:16.403Z,57.65
2022-12-15T00:29:06.848Z,57.55
2022-12-15T00:31:02.321Z,55.25
2022-12-15T00:32:53.687Z,56.58
2022-12-15T00:34:44.098Z,62.63
2022-12-15T00:36:34.588Z,61.42
2022-12-15T00:38:26.664Z,59.90
2022-12-15T00:39:59.854Z,54.05
2022-12-15T00:41:32.995Z,51.38
2022-12-15T00:43:05.128Z,53.97
2022-12-15T00:44:38.314Z,51.25
2022-12-15T00:46:30.368Z,52.55
2022-12-15T00:48:02.556Z,55.10
2022-12-15T00:49:52.873Z,54.80
2022-12-15T00:51:44.167Z,56.38
2022-12-15T00:53:34.459Z,54.60
2022-12-15T00:55:25.303Z,54.78
2022-12-15T00:57:15.592Z,55.28
2022-12-15T00:59:07.203Z,48.78
2022-12-15T01:00:57.596Z,52.53
2022-12-15T01:02:49.580Z,53.30
2022-12-15T01:04:40.401Z,51.40
2022-12-15T01:06:32.676Z,48.83
2022-12-15T01:08:23.398Z,53.88
2022-12-15T01:10:13.643Z,49.22
2022-12-15T01:12:04.419Z,54.10
2022-12-15T01:13:54.912Z,48.10
2022-12-15T01:15:45.325Z,53.05
2022-12-15T01:17:36.437Z,47.40
2022-12-15T01:19:28.529Z,53.45
2022-12-15T01:21:04.842Z,45.50
2022-12-15T01:22:37.177Z,49.35
2022-12-15T01:24:10.231Z,49.25
2022-12-15T01:25:43.291Z,49.50
2022-12-15T01:27:16.416Z,45.45
2022-12-15T01:28:49.558Z,51.05
2022-12-15T01:30:24.501Z,44.28
2022-12-15T01:31:57.709Z,48.10
2022-12-15T01:33:31.080Z,51.58
2022-12-15T01:35:06.846Z,53.88
2022-12-15T01:36:38.934Z,53.33
2022-12-15T01:38:12.546Z,52.25
2022-12-15T01:40:03.393Z,46.75
2022-12-15T01:41:36.425Z,54.03
2022-12-15T01:43:13.364Z,52.67
2022-12-15T01:44:48.329Z,56.40
2022-12-15T01:46:23.461Z,48.50
2022-12-15T01:48:00.748Z,45.80
2022-12-15T01:49:34.170Z,48.95
2022-12-15T01:51:19.873Z,44.97
2022-12-15T01:52:54.975Z,48.33
2022-12-15T01:54:32.967Z,47.13
2022-12-15T01:56:08.575Z,42.10
2022-12-15T01:57:42.324Z,41.03
2022-12-15T01:59:20.441Z,44.05
2022-12-15T02:00:52.634Z,43.85
2022-12-15T02:02:29.180Z,39.25
2022-12-15T02:04:02.515Z,44.53
2022-12-15T02:05:35.465Z,44.35
2022-12-15T02:07:13.970Z,48.58
2022-12-15T02:08:49.144Z,46.78
2022-12-15T02:10:23.845Z,45.28
2022-12-15T02:12:03.990Z,42.47
2022-12-15T02:13:45.625Z,45.78
2022-12-15T02:15:28.600Z,48.15
2022-12-15T02:17:21.358Z,47.75
2022-12-15T02:19:05.084Z,52.28
2022-12-15T02:21:01.757Z,48.30
2022-12-15T02:22:52.699Z,51.15
2022-12-15T02:25:04.011Z,55.83
2022-12-15T02:27:16.909Z,54.88
2022-12-15T02:28:57.544Z,58.58
2022-12-15T02:30:42.392Z,51.20
2022-12-15T02:32:20.537Z,51.22
2022-12-15T02:33:59.379Z,54.85
2022-12-15T02:35:41.578Z,49.80
2022-12-15T02:37:18.204Z,49.92
2022-12-15T02:38:51.404Z,51.65
2022-12-15T02:40:24.590Z,51.22
2022-12-15T02:41:57.665Z,48.40
2022-12-15T02:43:34.534Z,48.40
2022-12-15T02:45:11.130Z,47.63
2022-12-15T02:46:59.595Z,46.80
2022-12-15T02:48:42.035Z,46.03
2022-12-15T02:50:33.077Z,48.78
2022-12-15T02:52:21.434Z,45.80
2022-12-15T02:54:08.773Z,48.55
2022-12-15T02:55:51.356Z,50.38
2022-12-15T02:57:32.579Z,48.47
2022-12-15T02:59:11.155Z,47.90
2022-12-15T03:00:48.337Z,54.90
2022-12-15T03:02:25.489Z,46.65
2022-12-15T03:04:00.840Z,45.47
2022-12-15T03:05:34.094Z,49.95
2022-12-15T03:07:09.531Z,44.45
2022-12-15T03:08:42.640Z,45.60
2022-12-15T03:10:15.904Z,49.42
2022-12-15T03:11:47.974Z,46.40
2022-12-15T03:13:21.027Z,49.05
2022-12-15T03:14:54.137Z,44.40
2022-12-15T03:16:26.299Z,45.33
2022-12-15T03:18:00.764Z,49.95
2022-12-15T03:19:32.829Z,42.38
2022-12-15T03:21:06.038Z,43.97
2022-12-15T03:22:39.511Z,50.85
2022-12-15T03:24:12.732Z,48.60
2022-12-15T03:25:46.170Z,46.45
2022-12-15T03:27:22.966Z,48.75
2022-12-15T03:28:56.058Z,45.13
2022-12-15T03:30:28.164Z,47.40
2022-12-15T03:32:01.321Z,45.70
2022-12-15T03:33:36.041Z,43.40
2022-12-15T03:35:09.773Z,43.50
2022-12-15T03:36:42.895Z,48.00
2022-12-15T03:38:15.948Z,42.25
2022-12-15T03:39:49.298Z,44.13
2022-12-15T03:41:22.349Z,43.67
2022-12-15T03:42:54.466Z,41.53
2022-12-15T03:44:27.524Z,46.00
2022-12-15T03:46:00.645Z,44.22
2022-12-15T03:47:32.857Z,44.45
2022-12-15T03:49:07.914Z,47.35
2022-12-15T03:50:40.990Z,41.17
2022-12-15T03:52:14.040Z,44.20
2022-12-15T03:53:49.298Z,42.65
2022-12-15T03:55:22.642Z,39.03
2022-12-15T03:56:55.726Z,44.05
2022-12-15T03:58:28.751Z,47.58
2022-12-15T04:00:01.906Z,46.70
2022-12-15T04:01:36.128Z,44.42
2022-12-15T04:03:10.843Z,42.33
2022-12-15T04:04:45.392Z,48.42
2022-12-15T04:06:19.193Z,47.20
2022-12-15T04:07:52.265Z,45.35
2022-12-15T04:09:25.549Z,45.25
2022-12-15T04:10:58.645Z,43.38
2022-12-15T04:12:31.092Z,44.60
2022-12-15T04:14:04.154Z,40.28
2022-12-15T04:15:39.083Z,44.80
2022-12-15T04:17:12.755Z,38.17
2022-12-15T04:18:46.031Z,40.67
2022-12-15T04:20:19.802Z,40.40
2022-12-15T04:21:52.873Z,45.75
2022-12-15T04:23:26.064Z,42.20
2022-12-15T04:25:16.510Z,43.38
2022-12-15T04:27:07.030Z,42.55
2022-12-15T04:28:57.418Z,40.53
2022-12-15T04:30:49.325Z,40.92
2022-12-15T04:32:40.284Z,41.70
2022-12-15T04:34:34.032Z,43.20
2022-12-15T04:36:27.790Z,40.60
2022-12-15T04:38:19.579Z,41.90
2022-12-15T04:40:12.240Z,46.15
2022-12-15T04:42:03.028Z,42.50
2022-12-15T04:43:53.493Z,41.38
2022-12-15T04:45:44.201Z,36.85
2022-12-15T04:47:35.133Z,36.72
2022-12-15T04:49:25.693Z,36.97
2022-12-15T04:51:16.630Z,38.83
2022-12-15T04:53:09.027Z,38.75
2022-12-15T04:54:59.666Z,39.25
2022-12-15T04:56:50.728Z,38.15
2022-12-15T04:58:41.170Z,37.28
2022-12-15T05:00:32.303Z,36.70
2022-12-15T05:02:23.056Z,34.90
2022-12-15T05:04:13.724Z,38.25
2022-12-15T05:06:04.098Z,37.95
2022-12-15T05:07:55.022Z,37.08
2022-12-15T05:09:47.045Z,37.65
2022-12-15T05:11:37.758Z,36.08
2022-12-15T05:13:28.278Z,42.33
2022-12-15T05:15:18.689Z,37.70
2022-12-15T05:17:09.481Z,36.75
2022-12-15T05:18:59.901Z,37.40
2022-12-15T05:20:50.610Z,39.30
2022-12-15T05:22:41.050Z,34.72
2022-12-15T05:24:31.579Z,39.90
2022-12-15T05:26:23.711Z,38.63
2022-12-15T05:28:14.222Z,40.97
2022-12-15T05:30:04.585Z,35.72
2022-12-15T05:31:52.103Z,36.95
2022-12-15T05:33:25.202Z,37.75
2022-12-15T05:34:58.228Z,36.15
2022-12-15T05:36:31.269Z,35.70
2022-12-15T05:38:06.199Z,36.42
2022-12-15T05:39:39.267Z,38.25
2022-12-15T05:41:12.719Z,36.70
2022-12-15T05:42:50.070Z,33.03
2022-12-15T05:44:26.014Z,32.70
2022-12-15T05:46:04.188Z,35.72
2022-12-15T05:47:37.471Z,36.72
2022-12-15T05:49:13.690Z,33.55
2022-12-15T05:50:45.763Z,35.80
2022-12-15T05:52:22.242Z,39.78
2022-12-15T05:53:55.670Z,34.65
2022-12-15T05:55:28.724Z,32.05
2022-12-15T05:57:03.333Z,32.42
2022-12-15T05:58:41.412Z,33.42
2022-12-15T06:00:18.319Z,32.78
2022-12-15T06:01:51.463Z,33.63
2022-12-15T06:03:24.593Z,33.90
2022-12-15T06:04:57.706Z,33.15
2022-12-15T06:06:31.206Z,31.30
2022-12-15T06:08:04.281Z,32.40
2022-12-15T06:09:37.347Z,33.55
2022-12-15T06:11:12.888Z,28.58
2022-12-15T06:12:47.592Z,30.35
2022-12-15T06:14:20.760Z,33.03
2022-12-15T06:15:58.578Z,33.97
2022-12-15T06:17:31.746Z,32.90
2022-12-15T06:19:04.925Z,31.42
2022-12-15T06:20:37.991Z,33.55
2022-12-15T06:22:11.041Z,34.45
2022-12-15T06:23:44.589Z,36.17
2022-12-15T06:25:18.174Z,34.22
2022-12-15T06:26:51.345Z,35.80
2022-12-15T06:28:26.059Z,37.25
2022-12-15T06:29:59.106Z,33.70
2022-12-15T06:31:33.154Z,37.88
2022-12-15T06:33:06.330Z,34.55
2022-12-15T06:34:39.389Z,36.67
2022-12-15T06:36:14.244Z,32.88
2022-12-15T06:37:47.305Z,35.33
2022-12-15T06:39:20.566Z,38.20
2022-12-15T06:40:55.681Z,42.08
2022-12-15T06:42:28.746Z,36.00
2022-12-15T06:44:03.363Z,41.33
2022-12-15T06:45:36.643Z,39.85
2022-12-15T06:47:09.902Z,38.97
2022-12-15T06:48:45.009Z,36.83
2022-12-15T06:50:18.112Z,38.15
2022-12-15T06:51:51.325Z,38.65
2022-12-15T06:53:25.492Z,37.75
2022-12-15T06:54:58.557Z,30.98
2022-12-15T06:56:34.778Z,36.35
2022-12-15T06:58:08.103Z,37.60
2022-12-15T06:59:42.601Z,40.25
2022-12-15T07:01:16.405Z,37.20
2022-12-15T07:02:50.309Z,32.80
2022-12-15T07:04:23.853Z,36.35
2022-12-15T07:06:04.521Z,34.15
2022-12-15T07:07:37.633Z,39.20
2022-12-15T07:09:15.916Z,41.90
2022-12-15T07:10:49.032Z,37.60
2022-12-15T07:12:22.120Z,40.65
2022-12-15T07:13:55.776Z,39.47
2022-12-15T07:15:30.249Z,41.25
2022-12-15T07:17:03.410Z,41.70
2022-12-15T07:18:36.674Z,41.92
2022-12-15T07:20:11.134Z,42.42
2022-12-15T07:21:44.437Z,38.03
2022-12-15T07:23:17.491Z,36.90
2022-12-15T07:24:50.585Z,37.05
2022-12-15T07:26:24.205Z,36.35
2022-12-15T07:27:57.332Z,43.83
2022-12-15T07:29:30.408Z,34.53
2022-12-15T07:31:06.727Z,39.33
2022-12-15T07:32:39.816Z,37.50
2022-12-15T07:34:13.179Z,36.55
2022-12-15T07:35:54.200Z,36.78
2022-12-15T07:37:27.335Z,38.70
2022-12-15T07:39:02.461Z,34.97
2022-12-15T07:40:35.957Z,34.00
2022-12-15T07:42:09.081Z,35.50
2022-12-15T07:43:42.189Z,30.67
2022-12-15T07:45:15.732Z,34.30
2022-12-15T07:46:50.122Z,33.67
2022-12-15T07:48:23.707Z,33.33
2022-12-15T07:49:56.838Z,34.22
2022-12-15T07:51:30.035Z,29.30
2022-12-15T07:53:03.120Z,29.20
2022-12-15T07:54:36.487Z,30.05
2022-12-15T07:56:10.587Z,29.25
2022-12-15T07:57:43.947Z,31.88
2022-12-15T07:59:17.155Z,31.95
2022-12-15T08:00:50.418Z,29.88
2022-12-15T08:02:25.156Z,29.42
2022-12-15T08:03:58.518Z,31.08
2022-12-15T08:05:31.679Z,25.90
2022-12-15T08:07:05.102Z,32.97
2022-12-15T08:08:38.721Z,36.72
2022-12-15T08:10:11.887Z,27.98
2022-12-15T08:11:44.979Z,28.75
2022-12-15T08:13:38.140Z,30.70
2022-12-15T08:15:12.783Z,36.40
2022-12-15T08:16:46.304Z,30.20
2022-12-15T08:18:20.857Z,32.85
2022-12-15T08:19:58.615Z,29.80
2022-12-15T08:21:32.382Z,29.95
2022-12-15T08:23:05.582Z,29.67
2022-12-15T08:24:38.806Z,33.08
2022-12-15T08:26:14.491Z,26.15
2022-12-15T08:27:47.593Z,31.90
2022-12-15T08:31:16.735Z,31.35
2022-12-15T08:32:52.219Z,27.70
2022-12-15T08:34:26.997Z,29.42
2022-12-15T08:36:01.121Z,35.75
2022-12-15T08:37:35.615Z,30.90
2022-12-15T08:39:08.839Z,29.95
2022-12-15T08:40:41.928Z,31.38
2022-12-15T08:42:15.012Z,31.30
2022-12-15T08:43:49.618Z,30.83
2022-12-15T08:45:22.901Z,33.95
2022-12-15T08:46:56.002Z,27.08
2022-12-15T08:48:29.300Z,28.17
2022-12-15T08:50:03.807Z,27.83
2022-12-15T08:51:36.991Z,28.40
2022-12-15T08:53:30.810Z,27.83
2022-12-15T08:55:04.420Z,25.80
2022-12-15T08:56:37.677Z,26.60
2022-12-15T08:58:11.255Z,26.35
2022-12-15T08:59:44.316Z,28.45
2022-12-15T09:01:23.447Z,26.52
2022-12-15T09:02:57.143Z,26.88
2022-12-15T09:04:30.269Z,25.80
2022-12-15T09:06:05.406Z,25.73
2022-12-15T09:07:38.521Z,27.48
2022-12-15T09:09:13.936Z,26.60
2022-12-15T09:10:47.023Z,24.33
2022-12-15T09:12:25.718Z,27.73
2022-12-15T09:13:59.297Z,27.23
2022-12-15T09:16:07.238Z,25.25
2022-12-15T09:17:25.555Z,26.33
2022-12-15T09:19:00.826Z,24.35
2022-12-15T09:20:34.110Z,24.60
2022-12-15T09:22:08.842Z,24.65
2022-12-15T09:23:42.710Z,26.17
2022-12-15T09:25:15.811Z,21.90
2022-12-15T09:26:48.913Z,25.38
2022-12-15T09:28:22.075Z,24.40
2022-12-15T09:29:55.157Z,21.05
2022-12-15T09:31:30.184Z,24.08
2022-12-15T09:33:03.947Z,23.90
2022-12-15T09:34:37.201Z,21.77
2022-12-15T09:36:11.687Z,25.77
2022-12-15T09:37:51.609Z,18.83
2022-12-15T09:39:25.026Z,21.52
2022-12-15T09:40:58.315Z,20.55
2022-12-15T09:42:32.689Z,21.83
2022-12-15T09:44:11.776Z,21.00
2022-12-15T09:45:50.254Z,25.58
2022-12-15T09:47:31.456Z,26.10
2022-12-15T09:49:11.533Z,22.02
2022-12-15T09:50:47.790Z,22.92
2022-12-15T09:52:23.675Z,25.85
2022-12-15T09:53:58.956Z,22.52
2022-12-15T09:55:34.346Z,24.77
2022-12-15T09:57:15.954Z,25.05
2022-12-15T09:58:57.517Z,21.48
2022-12-15T10:00:38.340Z,26.50
2022-12-15T10:02:27.298Z,26.02
2022-12-15T10:04:08.841Z,25.20
2022-12-15T10:07:51.869Z,25.77
2022-12-15T10:09:28.817Z,27.50
2022-12-15T10:11:05.789Z,26.35
2022-12-15T10:12:50.076Z,31.48
2022-12-15T10:14:36.306Z,28.13
2022-12-15T10:16:19.301Z,28.42
2022-12-15T10:18:05.877Z,31.05
2022-12-15T10:19:43.448Z,26.40
2022-12-15T10:21:16.569Z,27.27
2022-12-15T10:22:51.317Z,29.60
2022-12-15T10:25:07.885Z,28.38
2022-12-15T10:26:27.430Z,27.35
2022-12-15T10:28:11.965Z,27.10
2022-12-15T10:29:50.785Z,28.10
2022-12-15T10:31:29.950Z,26.55
2022-12-15T10:33:05.044Z,28.17
2022-12-15T10:34:39.750Z,28.63
2022-12-15T10:36:15.279Z,27.98
2022-12-15T10:37:48.347Z,26.38
2022-12-15T10:39:24.602Z,26.85
2022-12-15T10:41:02.052Z,24.13
2022-12-15T10:42:47.460Z,25.70
2022-12-15T10:44:31.874Z,25.38
2022-12-15T10:46:12.169Z,22.33
2022-12-15T10:48:02.389Z,22.50
2022-12-15T10:49:35.477Z,23.03
2022-12-15T10:51:18.290Z,24.40
2022-12-15T10:52:51.864Z,25.13
2022-12-15T10:54:27.971Z,23.20
2022-12-15T10:56:02.376Z,27.00
2022-12-15T10:57:35.963Z,26.33
2022-12-15T10:59:25.968Z,25.77
2022-12-15T11:01:08.125Z,24.77
2022-12-15T11:02:42.536Z,25.70
2022-12-15T11:04:27.590Z,26.10
2022-12-15T11:06:00.736Z,25.23
2022-12-15T11:07:39.973Z,26.97
2022-12-15T11:09:27.785Z,29.93
2022-12-15T11:11:26.053Z,29.67
2022-12-15T11:13:11.602Z,25.23
2022-12-15T11:14:47.762Z,26.90
2022-12-15T11:16:21.358Z,27.47
2022-12-15T11:17:59.246Z,30.63
2022-12-15T11:19:38.320Z,28.33
2022-12-15T11:21:15.554Z,28.37
2022-12-15T11:22:56.478Z,29.63
2022-12-15T11:24:39.666Z,29.90
2022-12-15T11:26:23.672Z,31.37
2022-12-15T11:27:58.970Z,31.50
2022-12-15T11:29:50.244Z,32.30
2022-12-15T11:31:28.919Z,30.30
2022-12-15T11:33:03.261Z,31.30
2022-12-15T11:34:39.992Z,31.50
2022-12-15T11:36:19.435Z,35.90
2022-12-15T11:37:57.737Z,32.70
2022-12-15T11:39:46.883Z,35.63
2022-12-15T11:41:37.647Z,30.30
2022-12-15T11:43:51.528Z,32.47
2022-12-15T11:45:31.469Z,34.13
2022-12-15T11:47:14.328Z,35.60
2022-12-15T11:49:09.200Z,33.47
2022-12-15T11:50:52.715Z,34.70
2022-12-15T11:52:45.825Z,34.83
2022-12-15T11:54:29.778Z,33.00
2022-12-15T11:56:16.452Z,34.67
2022-12-15T11:58:09.639Z,31.17
2022-12-15T12:00:03.962Z,37.43
2022-12-15T12:02:03.432Z,35.67
2022-12-15T12:03:44.187Z,34.17
2022-12-15T12:05:52.254Z,37.93
2022-12-15T12:07:30.759Z,33.20
2022-12-15T12:09:16.843Z,39.27
2022-12-15T12:10:57.425Z,35.43
2022-12-15T12:12:35.013Z,37.33
2022-12-15T12:14:31.938Z,35.50
2022-12-15T12:16:14.220Z,33.33
2022-12-15T12:17:51.874Z,33.40
2022-12-15T12:19:30.429Z,36.00
2022-12-15T12:21:08.799Z,32.23
2022-12-15T12:22:45.601Z,31.70
2022-12-15T12:24:26.119Z,32.30
2022-12-15T12:26:04.662Z,33.33
2022-12-15T12:27:45.210Z,32.40
2022-12-15T12:29:29.684Z,37.53
2022-12-15T12:31:04.636Z,40.33
2022-12-15T12:32:45.932Z,35.73
2022-12-15T12:34:26.731Z,38.83
2022-12-15T12:36:04.739Z,39.10
2022-12-15T12:37:43.651Z,40.60
2022-12-15T12:39:21.274Z,39.90
2022-12-15T12:41:04.855Z,44.20
2022-12-15T12:42:44.821Z,44.13
2022-12-15T12:44:30.839Z,44.87
2022-12-15T12:46:10.362Z,43.40
2022-12-15T12:47:50.146Z,41.47
2022-12-15T12:49:29.547Z,43.40
2022-12-15T12:51:20.396Z,44.67
2022-12-15T12:52:55.462Z,41.80
2022-12-15T12:54:44.615Z,44.30
2022-12-15T12:56:43.978Z,36.63
2022-12-15T12:58:38.365Z,41.80
2022-12-15T13:00:22.401Z,36.13
2022-12-15T13:01:56.797Z,41.00
2022-12-15T13:03:30.343Z,34.50
2022-12-15T13:05:22.886Z,38.40
2022-12-15T13:07:02.128Z,38.47
2022-12-15T13:08:51.910Z,38.33
2022-12-15T13:10:26.186Z,40.17
2022-12-15T13:12:15.050Z,38.60
2022-12-15T13:13:55.221Z,39.20
2022-12-15T13:15:39.000Z,38.97
2022-12-15T13:17:26.486Z,43.00
2022-12-15T13:19:06.775Z,43.57
2022-12-15T13:20:41.054Z,46.07
2022-12-15T13:22:25.596Z,44.43
2022-12-15T13:24:00.283Z,40.87
2022-12-15T13:25:42.086Z,44.37
2022-12-15T13:27:21.355Z,42.80
2022-12-15T13:28:57.387Z,43.73
2022-12-15T13:30:30.508Z,45.83
2022-12-15T13:32:05.240Z,44.47
2022-12-15T13:33:46.050Z,46.13
2022-12-15T13:35:26.400Z,42.27
2022-12-15T13:37:03.645Z,44.00
2022-12-15T13:38:52.992Z,42.97
2022-12-15T13:40:33.284Z,40.43
2022-12-15T13:42:52.942Z,40.47
2022-12-15T13:44:31.743Z,42.90
2022-12-15T13:46:16.097Z,43.30
2022-12-15T13:47:56.614Z,46.27
2022-12-15T13:49:34.145Z,43.63
2022-12-15T13:51:43.840Z,47.45
2022-12-15T13:53:21.471Z,41.95
2022-12-15T13:54:56.961Z,47.97
2022-12-15T13:56:53.888Z,43.92
2022-12-15T13:58:29.712Z,48.67
2022-12-15T14:00:06.046Z,45.20
2022-12-15T14:01:51.427Z,47.13
2022-12-15T14:03:26.463Z,48.08
2022-12-15T14:05:17.582Z,47.70
2022-12-15T14:06:53.565Z,45.90
2022-12-15T14:08:29.449Z,51.80
2022-12-15T14:10:04.971Z,43.85
2022-12-15T14:11:52.629Z,52.25
2022-12-15T14:13:29.749Z,51.55
2022-12-15T14:15:03.576Z,51.78
2022-12-15T14:16:36.825Z,50.00
2022-12-15T14:18:26.102Z,52.47
2022-12-15T14:19:59.158Z,49.80
2022-12-15T14:21:32.415Z,46.70
2022-12-15T14:23:19.478Z,50.58
2022-12-15T14:24:54.210Z,50.60
2022-12-15T14:26:30.786Z,47.78
2022-12-15T14:28:07.752Z,50.47
2022-12-15T14:29:43.798Z,45.78
2022-12-15T14:31:20.339Z,52.97
2022-12-15T14:32:59.119Z,50.05
2022-12-15T14:34:38.823Z,49.58
2022-12-15T14:36:14.116Z,54.10
2022-12-15T14:37:47.251Z,50.03
2022-12-15T14:39:24.373Z,49.97
2022-12-15T14:40:58.760Z,47.35
2022-12-15T14:42:32.221Z,53.70
2022-12-15T14:44:36.850Z,50.90
2022-12-15T14:46:08.835Z,48.35
2022-12-15T14:47:42.170Z,53.35
2022-12-15T14:49:21.342Z,50.35
2022-12-15T14:50:58.966Z,50.25
2022-12-15T14:52:35.971Z,48.13
2022-12-15T14:54:32.301Z,51.67
2022-12-15T14:56:27.816Z,46.47
2022-12-15T14:58:04.074Z,58.03
2022-12-15T14:59:42.144Z,56.13
2022-12-15T15:01:25.249Z,52.70
2022-12-15T15:04:59.633Z,55.63
2022-12-15T15:06:39.792Z,49.40
2022-12-15T15:08:15.881Z,48.78
2022-12-15T15:09:48.990Z,52.17
2022-12-15T15:11:29.416Z,51.40
2022-12-15T15:13:02.706Z,51.67
2022-12-15T15:14:41.685Z,52.85
2022-12-15T15:16:17.750Z,52.13
2022-12-15T15:17:53.270Z,52.60
2022-12-15T15:19:26.378Z,54.10
2022-12-15T15:21:03.514Z,56.33
2022-12-15T15:22:40.899Z,53.33
2022-12-15T15:24:25.057Z,49.92
2022-12-15T15:25:59.207Z,51.70
2022-12-15T15:27:39.934Z,50.72
2022-12-15T15:29:35.752Z,52.13
2022-12-15T15:31:28.325Z,54.47
2022-12-15T15:33:02.200Z,54.38
2022-12-15T15:34:35.667Z,60.03
2022-12-15T15:36:11.857Z,57.33
2022-12-15T15:37:46.880Z,52.88
2022-12-15T15:39:21.493Z,54.83
2022-12-15T15:40:56.591Z,62.63
2022-12-15T15:42:32.708Z,57.45
2022-12-15T15:44:13.541Z,61.55
2022-12-15T15:45:48.163Z,66.50
2022-12-15T15:47:25.590Z,63.92
2022-12-15T15:49:01.871Z,60.72
2022-12-15T15:50:34.971Z,55.70
2022-12-15T15:52:10.236Z,60.53
2022-12-15T15:53:44.929Z,59.17
2022-12-15T15:55:22.578Z,62.60
2022-12-15T15:56:55.650Z,61.67
2022-12-15T15:58:29.607Z,64.75
2022-12-15T16:00:03.770Z,73.90
2022-12-15T16:01:39.776Z,65.38
2022-12-15T16:03:13.189Z,62.88
2022-12-15T16:04:46.560Z,73.70
2022-12-15T16:06:21.580Z,72.97
2022-12-15T16:07:54.658Z,74.60
2022-12-15T16:09:29.111Z,71.68
2022-12-15T16:11:02.719Z,78.05
2022-12-15T16:12:42.299Z,75.10
2022-12-15T16:14:17.341Z,74.00
2022-12-15T16:15:50.824Z,69.60
2022-12-15T16:17:25.117Z,67.80
2022-12-15T16:18:58.260Z,66.97
2022-12-15T16:20:31.573Z,63.50
2022-12-15T16:22:04.718Z,69.28
2022-12-15T16:23:38.711Z,66.22
2022-12-15T16:25:18.485Z,68.68
2022-12-15T16:26:52.121Z,66.30
2022-12-15T16:28:28.033Z,63.90
2022-12-15T16:30:01.092Z,62.40
2022-12-15T16:31:41.293Z,67.63
2022-12-15T16:33:15.893Z,64.55
2022-12-15T16:34:49.738Z,65.68
2022-12-15T16:36:23.077Z,56.75
2022-12-15T16:37:56.165Z,61.88
2022-12-15T16:39:32.378Z,65.18
2022-12-15T16:41:09.510Z,61.83
2022-12-15T16:42:42.591Z,66.45
2022-12-15T16:44:15.634Z,70.72
2022-12-15T16:45:51.007Z,68.35
2022-12-15T16:47:24.134Z,64.80
2022-12-15T16:48:57.274Z,63.63
2022-12-15T16:50:32.221Z,62.10
2022-12-15T16:52:05.642Z,60.53
2022-12-15T16:53:41.432Z,61.55
2022-12-15T16:55:20.741Z,62.95
2022-12-15T16:56:57.352Z,57.03
2022-12-15T16:58:32.152Z,58.30
2022-12-15T17:00:16.225Z,54.80
2022-12-15T17:01:50.151Z,53.97
2022-12-15T17:03:26.135Z,53.90
2022-12-15T17:04:59.432Z,55.78
2022-12-15T17:06:32.508Z,53.05
2022-12-15T17:08:09.587Z,52.70
2022-12-15T17:09:42.721Z,50.92
2022-12-15T17:11:20.298Z,54.08
2022-12-15T17:13:05.268Z,52.45
2022-12-15T17:14:38.346Z,54.83
2022-12-15T17:16:14.185Z,49.45
2022-12-15T17:17:47.689Z,53.70
2022-12-15T17:19:21.476Z,47.80
2022-12-15T17:21:02.592Z,52.67
2022-12-15T17:22:35.792Z,42.13
2022-12-15T17:24:15.166Z,43.92
2022-12-15T17:27:43.897Z,54.65
2022-12-15T17:29:21.310Z,52.08
2022-12-15T17:30:55.007Z,54.13
2022-12-15T17:32:28.096Z,50.67
2022-12-15T17:34:02.417Z,52.00
2022-12-15T17:35:35.602Z,51.92
2022-12-15T17:37:14.312Z,48.67
2022-12-15T17:38:48.371Z,43.65
2022-12-15T17:40:23.678Z,43.13
2022-12-15T17:42:00.554Z,47.05
2022-12-15T17:43:36.113Z,45.88
2022-12-15T17:45:17.887Z,42.90
2022-12-15T17:46:51.898Z,38.15
2022-12-15T17:48:25.504Z,36.10
2022-12-15T17:49:58.559Z,40.15
2022-12-15T17:51:31.641Z,37.13
2022-12-15T17:53:06.358Z,42.78
2022-12-15T17:54:39.488Z,38.55
2022-12-15T17:56:14.961Z,36.58
2022-12-15T17:57:48.673Z,40.80
2022-12-15T17:59:21.723Z,36.55
2022-12-15T18:00:57.315Z,33.85
2022-12-15T18:02:30.870Z,40.42
2022-12-15T18:04:04.298Z,34.60
2022-12-15T18:05:37.557Z,35.63
2022-12-15T18:07:17.150Z,37.85
2022-12-15T18:08:50.234Z,43.50
2022-12-15T18:10:28.759Z,46.00
2022-12-15T18:12:01.809Z,47.97
2022-12-15T18:13:35.812Z,46.60
2022-12-15T18:15:19.583Z,48.90
2022-12-15T18:16:54.259Z,46.08
2022-12-15T18:18:27.703Z,50.95
2022-12-15T18:20:00.817Z,50.13
2022-12-15T18:21:33.993Z,49.28
2022-12-15T18:23:13.831Z,53.97
2022-12-15T18:24:47.251Z,55.10
2022-12-15T18:26:21.192Z,55.88
2022-12-15T18:27:55.237Z,49.85
2022-12-15T18:29:28.317Z,51.60
2022-12-15T18:31:05.881Z,52.60
2022-12-15T18:32:42.085Z,54.47
2022-12-15T18:34:17.467Z,54.53
2022-12-15T18:35:51.885Z,55.08
2022-12-15T18:37:25.700Z,49.97
2022-12-15T18:38:59.076Z,50.35
2022-12-15T18:40:32.146Z,51.50
2022-12-15T18:42:06.857Z,49.50
2022-12-15T18:43:41.051Z,55.15
2022-12-15T18:45:22.997Z,51.97
2022-12-15T18:46:56.575Z,53.25
2022-12-15T18:48:32.916Z,53.50
2022-12-15T18:50:08.775Z,51.72
2022-12-15T18:51:42.209Z,53.38
2022-12-15T18:53:19.376Z,49.47
2022-12-15T18:54:54.173Z,48.08
2022-12-15T18:56:27.292Z,54.13
2022-12-15T18:58:01.724Z,49.00
2022-12-15T18:59:34.813Z,57.85
2022-12-15T19:01:09.464Z,51.15
2022-12-15T19:02:43.144Z,52.45
2022-12-15T19:04:17.725Z,50.13
2022-12-15T19:05:53.922Z,54.42
2022-12-15T19:07:27.620Z,51.50
2022-12-15T19:09:00.885Z,52.08
2022-12-15T19:10:35.389Z,54.80
2022-12-15T19:12:19.718Z,53.47
2022-12-15T19:13:52.772Z,54.55
2022-12-15T19:15:26.019Z,57.17
2022-12-15T19:17:12.963Z,58.03
2022-12-15T19:19:04.038Z,51.80
2022-12-15T19:20:56.386Z,56.85
2022-12-15T19:22:30.496Z,54.08
2022-12-15T19:24:03.803Z,59.55
2022-12-15T19:25:36.992Z,62.38
2022-12-15T19:27:11.803Z,54.00
2022-12-15T19:28:44.852Z,61.22
2022-12-15T19:30:20.287Z,56.67
2022-12-15T19:31:54.748Z,62.15
2022-12-15T19:33:27.893Z,60.55
2022-12-15T19:35:01.903Z,58.17
2022-12-15T19:36:36.960Z,56.40
2022-12-15T19:38:20.413Z,63.05
2022-12-15T19:39:54.304Z,58.60
2022-12-15T19:41:27.544Z,67.78
2022-12-15T19:43:01.592Z,71.80
2022-12-15T19:44:34.656Z,68.57
2022-12-15T19:46:08.012Z,67.32
2022-12-15T19:47:41.072Z,70.13
2022-12-15T19:49:14.940Z,68.60
2022-12-15T19:50:50.409Z,63.70
2022-12-15T19:52:24.920Z,64.85
2022-12-15T19:53:57.969Z,65.18
2022-12-15T19:55:34.020Z,63.58
2022-12-15T19:57:12.440Z,63.13
2022-12-15T19:58:45.907Z,66.32
2022-12-15T20:00:22.328Z,67.07
2022-12-15T20:01:55.695Z,60.45
2022-12-15T20:03:32.728Z,66.45
2022-12-15T20:05:07.731Z,62.90
2022-12-15T20:06:40.829Z,62.40
2022-12-15T20:08:21.136Z,64.60
2022-12-15T20:09:54.880Z,60.72
2022-12-15T20:11:29.732Z,60.30
2022-12-15T20:13:03.335Z,63.35
2022-12-15T20:14:36.481Z,61.10
2022-12-15T20:16:10.503Z,65.18
2022-12-15T20:17:43.628Z,63.97
2022-12-15T20:19:16.898Z,63.33
2022-12-15T20:20:50.671Z,61.42
2022-12-15T20:22:23.806Z,65.43
2022-12-15T20:24:02.053Z,58.70
2022-12-15T20:25:37.348Z,63.20
2022-12-15T20:27:13.994Z,71.57
2022-12-15T20:28:47.135Z,64.70
2022-12-15T20:30:21.841Z,69.07
2022-12-15T20:31:55.767Z,68.70
2022-12-15T20:33:29.242Z,59.92
2022-12-15T20:35:02.567Z,60.03
2022-12-15T20:36:36.340Z,61.17
2022-12-15T20:38:28.700Z,60.20
2022-12-15T20:40:03.156Z,59.50
2022-12-15T20:41:36.420Z,63.38
2022-12-15T20:43:14.514Z,70.03
2022-12-15T20:44:47.631Z,70.28
2022-12-15T20:46:22.841Z,69.05
2022-12-15T20:47:56.819Z,72.22
2022-12-15T20:49:30.444Z,70.88
2022-12-15T20:51:07.561Z,70.03
2022-12-15T20:52:43.790Z,70.22
2022-12-15T20:54:19.070Z,67.55
2022-12-15T20:55:55.439Z,74.35
2022-12-15T20:57:28.474Z,72.35
2022-12-15T20:59:01.614Z,68.80
2022-12-15T21:00:34.732Z,67.65
2022-12-15T21:02:18.471Z,76.53
2022-12-15T21:03:55.070Z,79.40
2022-12-15T21:05:28.255Z,73.57
2022-12-15T21:07:01.355Z,73.30
2022-12-15T21:08:34.444Z,78.35
2022-12-15T21:10:08.174Z,80.13
2022-12-15T21:11:43.052Z,78.35
2022-12-15T21:13:20.761Z,77.57
2022-12-15T21:14:54.384Z,79.75
2022-12-15T21:16:30.052Z,84.82